Sioux Arrow — WAG6168 — position and weather

sailwx.info

Track history (hours):
 
Tides and Currents Weather Stations Pressure Air Temp Water Temp Dewpoint Dewpoint Depression Visibility Wind Speed Wind Dir Waves Ship Positions

Sioux Arrow

Owner: HARMON, JACK L, PORT ANGELES, WA. More information available from US FCC via Universal Licensing System and Coast Guard Vessel Documentation Center.

Last reported at 2018-Feb-22 22:25 UTC. Time now 2018-Feb-24 22:21 UTC.
Position N 48°31' W 122°36'.

Type: Port tender. MMSI: 366973370.

Date/timePositionNaut miles runAvg speedWind from/ knotsBaromVisibWave heightAir tempDewpointWater temp
2018-Feb-22 22:25N 48°31' W 122°36'0 0.1
2018-Feb-22 22:00N 48°31' W 122°36'0 0.0
2018-Feb-22 00:54N 48°31' W 122°36'0 0.2
2018-Feb-22 00:30N 48°31' W 122°37'2 4.2
2018-Feb-22 00:00N 48°31' W 122°34'2 4.0
2018-Feb-21 23:30N 48°31' W 122°37'1 1.3
2018-Feb-21 23:00N 48°31' W 122°37'0 0.0
2018-Feb-21 22:30N 48°31' W 122°37'0 0.0
2018-Feb-21 22:00N 48°31' W 122°37'0 0.0
2018-Feb-21 21:30N 48°31' W 122°37'1 1.3
2018-Feb-21 21:00N 48°31' W 122°37'0 0.0
2018-Feb-21 20:30N 48°31' W 122°37'0 0.3
2018-Feb-21 20:00N 48°31' W 122°36'0 0.1
2018-Feb-21 19:30N 48°31' W 122°36'611.3
2018-Feb-21 19:00N 48°36' W 122°34'1 2.3
2018-Feb-21 18:30N 48°35' W 122°34'5 9.4
2018-Feb-21 18:01N 48°31' W 122°36'0 0.1
2018-Feb-21 17:30N 48°31' W 122°36'0 0.0
2018-Feb-21 17:00N 48°31' W 122°36'1 2.9
2018-Feb-21 16:31N 48°31' W 122°34'0 0.1
2018-Feb-21 16:00N 48°31' W 122°34'1 2.8
2018-Feb-21 15:31N 48°31' W 122°36'0 0.0
2018-Feb-21 04:53N 48°31' W 122°36'3 8.8
2018-Feb-21 04:30N 48°34' W 122°34'3 5.2
2018-Feb-21 04:00N 48°36' W 122°33'3 6.0
2018-Feb-21 03:30N 48°33' W 122°34'3 5.9
2018-Feb-21 03:00N 48°31' W 122°36'0 0.0
2018-Feb-21 02:30N 48°31' W 122°36'0 0.0
2018-Feb-21 02:00N 48°31' W 122°36'0 0.0
2018-Feb-21 01:30N 48°31' W 122°36'0 0.0
2018-Feb-21 01:00N 48°31' W 122°36'0 0.0
2018-Feb-21 00:30N 48°31' W 122°36'0 0.0
2018-Feb-20 23:59N 48°31' W 122°36'0 0.0
2018-Feb-20 23:30N 48°31' W 122°36'2 3.1
2018-Feb-20 23:00N 48°31' W 122°34'2 0.1
2018-Feb-20 09:14N 48°31' W 122°36'2 7.0
2018-Feb-20 09:00N 48°32' W 122°35'5 9.5
2018-Feb-20 08:29N 48°36' W 122°33'1 3.1
2018-Feb-20 08:00N 48°36' W 122°35'5 9.5
2018-Feb-20 07:29N 48°31' W 122°36'0 0.3
2018-Feb-20 07:00N 48°31' W 122°36'0 0.0
2018-Feb-20 06:24N 48°31' W 122°36'0 0.0
2018-Feb-20 06:00N 48°31' W 122°36'4 8.0
2018-Feb-20 05:30N 48°34' W 122°34'1 2.7
2018-Feb-20 05:00N 48°36' W 122°34'5 9.1
2018-Feb-20 04:30N 48°31' W 122°35'1 2.4
2018-Feb-20 04:00N 48°31' W 122°36'0 0.0
2018-Feb-20 03:30N 48°31' W 122°36'0 0.0
2018-Feb-20 03:00N 48°31' W 122°36'0 0.0
2018-Feb-20 02:30N 48°31' W 122°36'0 0.0
2018-Feb-20 02:00N 48°31' W 122°36'0 0.0
2018-Feb-18 04:57N 48°31' W 122°36'0 0.0
2018-Feb-17 16:36N 48°31' W 122°36'0 0.0
2018-Feb-17 06:35N 48°31' W 122°36'0 0.0
2018-Feb-17 06:30N 48°31' W 122°36'0 0.0
2018-Feb-17 06:00N 48°31' W 122°36'0 0.0
2018-Feb-17 05:30N 48°31' W 122°36'0 0.0
2018-Feb-17 05:00N 48°31' W 122°36'510.8
2018-Feb-17 04:30N 48°36' W 122°33'5 9.6
2018-Feb-17 04:00N 48°31' W 122°35'1 2.2
2018-Feb-17 03:30N 48°31' W 122°36'0 0.0
2018-Feb-17 03:00N 48°31' W 122°36'1 2.0
2018-Feb-17 02:30N 48°31' W 122°35'1 2.1
2018-Feb-17 02:00N 48°31' W 122°36'0 0.0
2018-Feb-17 01:30N 48°31' W 122°36'0 0.0
2018-Feb-17 01:00N 48°31' W 122°36'0 0.9
2018-Feb-17 00:30N 48°31' W 122°36'1 1.5
2018-Feb-17 00:00N 48°31' W 122°35'1 2.4
2018-Feb-16 23:30N 48°31' W 122°36'0 0.0
2018-Feb-16 23:01N 48°31' W 122°36'0 0.0
2018-Feb-16 22:30N 48°31' W 122°36'0 0.0
2018-Feb-16 22:00N 48°31' W 122°36'1 2.4
2018-Feb-16 21:30N 48°31' W 122°35'0 0.2
2018-Feb-16 21:00N 48°31' W 122°35'1 1.6
2018-Feb-16 20:30N 48°31' W 122°36'1 1.5
2018-Feb-16 19:59N 48°31' W 122°35'1 2.3
2018-Feb-16 19:30N 48°31' W 122°36'0 0.0
2018-Feb-16 19:00N 48°31' W 122°36'0 0.0
2018-Feb-16 18:30N 48°31' W 122°36'0 0.0
2018-Feb-16 18:00N 48°31' W 122°36'0 0.1
2018-Feb-16 17:30N 48°31' W 122°36'0 0.1
2018-Feb-16 17:00N 48°31' W 122°36'5 9.7
2018-Feb-16 16:30N 48°35' W 122°34'1 1.4
2018-Feb-16 16:00N 48°36' W 122°33'510.9
2018-Feb-16 15:30N 48°31' W 122°36'0 0.0
2018-Feb-16 15:00N 48°31' W 122°36'0 0.0
2018-Feb-16 14:30N 48°31' W 122°36'0 0.0
2018-Feb-16 10:53N 48°31' W 122°36'0 0.0
2018-Feb-16 10:30N 48°31' W 122°36'0 0.0
2018-Feb-16 10:00N 48°31' W 122°36'0 0.0
2018-Feb-16 09:30N 48°31' W 122°36'1 1.2
2018-Feb-16 09:00N 48°31' W 122°36'1 1.2
2018-Feb-16 08:30N 48°31' W 122°36'0 0.0
2018-Feb-16 04:13N 48°31' W 122°36'0 0.0
2018-Feb-16 03:59N 48°31' W 122°36'0 0.0
2018-Feb-16 03:30N 48°31' W 122°36'0 0.2
2018-Feb-16 03:00N 48°31' W 122°36'611.8
2018-Feb-16 02:30N 48°36' W 122°33'612.1
2018-Feb-16 02:00N 48°31' W 122°36'0 0.0
2018-Feb-16 01:30N 48°31' W 122°36'0 0.0
2018-Feb-16 01:00N 48°31' W 122°36'611.7
2018-Feb-16 00:30N 48°36' W 122°33'3 4.8
2018-Feb-15 23:59N 48°34' W 122°34'3 7.0
2018-Feb-15 23:30N 48°31' W 122°36'0 0.0
2018-Feb-15 23:00N 48°31' W 122°36'2 4.1
2018-Feb-15 22:30N 48°32' W 122°34'3 6.8
2018-Feb-15 22:00N 48°35' W 122°33'1 1.2
2018-Feb-15 21:30N 48°36' W 122°33'611.1
2018-Feb-15 21:00N 48°31' W 122°36'3 5.7
2018-Feb-15 20:30N 48°33' W 122°34'2 4.9
2018-Feb-15 20:00N 48°35' W 122°33'510.4
2018-Feb-15 19:30N 48°31' W 122°36'1 1.6
2018-Feb-15 19:00N 48°31' W 122°35'5 9.4
2018-Feb-15 18:30N 48°36' W 122°34'510.3
2018-Feb-15 18:00N 48°31' W 122°36'510.1
2018-Feb-15 17:30N 48°35' W 122°34'4 7.2
2018-Feb-15 17:01N 48°32' W 122°34'1 2.3
2018-Feb-15 16:31N 48°33' W 122°34'3 5.4
2018-Feb-15 16:00N 48°36' W 122°33'510.8
2018-Feb-15 15:30N 48°31' W 122°36'0 0.0
2018-Feb-15 14:59N 48°31' W 122°36'3 7.1
2018-Feb-15 14:30N 48°34' W 122°34'2 3.8
2018-Feb-15 14:00N 48°35' W 122°33'5 9.6
2018-Feb-15 13:30N 48°31' W 122°36'1 0.1
2018-Feb-15 04:49N 48°31' W 122°36'2 5.6
2018-Feb-15 04:30N 48°32' W 122°34'3 6.6
2018-Feb-15 04:00N 48°35' W 122°34'5 9.5
2018-Feb-15 03:30N 48°31' W 122°36'0 0.0
2018-Feb-15 03:00N 48°31' W 122°36'0 0.0
2018-Feb-15 02:30N 48°31' W 122°36'0 0.0
2018-Feb-15 02:00N 48°31' W 122°36'0 0.0
2018-Feb-15 01:30N 48°31' W 122°36'0 0.0
2018-Feb-15 01:00N 48°31' W 122°36'611.7
2018-Feb-15 00:31N 48°36' W 122°33'4 8.8
2018-Feb-15 00:00N 48°32' W 122°34'1 1.1
2018-Feb-14 23:30N 48°31' W 122°34'0 0.3
2018-Feb-14 23:00N 48°31' W 122°34'2 3.8
2018-Feb-14 22:30N 48°31' W 122°36'0 0.0
2018-Feb-14 22:00N 48°31' W 122°36'0 0.0
2018-Feb-14 21:30N 48°31' W 122°36'0 0.1
2018-Feb-14 21:00N 48°31' W 122°36'2 3.6
2018-Feb-14 20:30N 48°32' W 122°34'4 7.5
2018-Feb-14 20:00N 48°36' W 122°33'510.8
2018-Feb-14 19:30N 48°31' W 122°36'0 0.0
2018-Feb-14 19:00N 48°31' W 122°36'0 0.0
2018-Feb-14 18:30N 48°31' W 122°36'0 0.0
2018-Feb-14 18:00N 48°31' W 122°36'0 0.0
2018-Feb-14 17:30N 48°31' W 122°36'0 0.0
2018-Feb-14 17:00N 48°31' W 122°36'4 8.9
2018-Feb-14 16:30N 48°35' W 122°34'1 2.4
2018-Feb-14 16:00N 48°36' W 122°33'611.3
2018-Feb-14 15:31N 48°31' W 122°36'0 0.0
2018-Feb-14 10:35N 48°31' W 122°36'0 0.0
2018-Feb-14 10:30N 48°31' W 122°36'1 2.2
2018-Feb-14 10:00N 48°31' W 122°35'0 1.0
2018-Feb-14 09:30N 48°31' W 122°36'1 1.3
2018-Feb-14 09:00N 48°31' W 122°36'0 0.0
2018-Feb-14 08:30N 48°31' W 122°36'0 0.0
2018-Feb-14 08:00N 48°31' W 122°36'0 0.0
2018-Feb-14 07:30N 48°31' W 122°36'0 0.0
2018-Feb-14 07:00N 48°31' W 122°36'0 0.0
2018-Feb-14 06:30N 48°31' W 122°36'0 0.0
2018-Feb-14 06:00N 48°31' W 122°36'0 0.0
2018-Feb-14 05:30N 48°31' W 122°36'0 0.0
2018-Feb-14 05:00N 48°31' W 122°36'1 1.5
2018-Feb-14 04:30N 48°31' W 122°36'510.9
2018-Feb-14 04:00N 48°36' W 122°33'1 1.1
2018-Feb-14 03:29N 48°36' W 122°33'2 4.1
2018-Feb-14 03:00N 48°34' W 122°34'3 7.0
2018-Feb-14 02:30N 48°31' W 122°36'0 0.0
2018-Feb-14 02:00N 48°31' W 122°36'0 0.0
2018-Feb-14 01:31N 48°31' W 122°36'0 0.0
2018-Feb-14 01:00N 48°31' W 122°36'0 0.0
2018-Feb-14 00:30N 48°31' W 122°36'0 0.0
2018-Feb-14 00:00N 48°31' W 122°36'0 0.0
2018-Feb-13 23:30N 48°31' W 122°36'0 0.0
2018-Feb-13 23:00N 48°31' W 122°36'0 0.0
2018-Feb-13 22:30N 48°31' W 122°36'1 2.2
2018-Feb-13 22:00N 48°31' W 122°35'1 2.1
2018-Feb-13 21:30N 48°31' W 122°36'1 1.9
2018-Feb-13 21:00N 48°31' W 122°35'0 0.5
2018-Feb-13 20:28N 48°31' W 122°35'1 1.3
2018-Feb-13 20:01N 48°31' W 122°36'0 1.0
2018-Feb-13 19:30N 48°31' W 122°36'0 0.0
2018-Feb-13 19:00N 48°31' W 122°36'0 0.0
2018-Feb-13 18:30N 48°31' W 122°36'2 4.5
2018-Feb-13 17:59N 48°33' W 122°34'5 9.4
2018-Feb-13 17:30N 48°37' W 122°34'511.0
2018-Feb-13 17:00N 48°32' W 122°34'2 0.7
2018-Feb-13 14:31N 48°31' W 122°36'0 0.0
2018-Feb-13 14:30N 48°31' W 122°36'510.4
2018-Feb-13 14:00N 48°36' W 122°34'1 2.6
2018-Feb-13 13:30N 48°37' W 122°34'1 2.1
2018-Feb-13 13:00N 48°37' W 122°32'1 2.9
2018-Feb-13 12:30N 48°36' W 122°34'510.4
2018-Feb-13 12:01N 48°31' W 122°36'0 0.0
2018-Feb-13 11:30N 48°31' W 122°36'0 0.0
2018-Feb-13 11:00N 48°31' W 122°36'0 0.0
2018-Feb-13 10:30N 48°31' W 122°36'0 0.0
2018-Feb-13 10:00N 48°31' W 122°36'0 0.0
2018-Feb-13 09:31N 48°31' W 122°36'0 0.0
2018-Feb-13 09:00N 48°31' W 122°36'0 0.0
2018-Feb-13 08:31N 48°31' W 122°36'0 0.0
2018-Feb-13 08:00N 48°31' W 122°36'0 0.0
2018-Feb-13 07:30N 48°31' W 122°36'0 0.0
2018-Feb-13 07:01N 48°31' W 122°36'0 0.0
2018-Feb-13 06:30N 48°31' W 122°36'0 0.0
2018-Feb-13 06:00N 48°31' W 122°36'4 8.5
2018-Feb-13 05:30N 48°35' W 122°34'2 3.1
2018-Feb-13 05:00N 48°36' W 122°34'611.6
2018-Feb-13 04:30N 48°31' W 122°36'0 0.0
2018-Feb-13 04:00N 48°31' W 122°36'0 0.1
2018-Feb-13 03:30N 48°31' W 122°37'0 0.1
2018-Feb-13 03:00N 48°31' W 122°36'0 0.0
2018-Feb-13 02:30N 48°31' W 122°36'0 0.0
2018-Feb-13 02:00N 48°31' W 122°36'0 0.1
2018-Feb-13 01:30N 48°31' W 122°37'0 0.1
2018-Feb-13 01:00N 48°31' W 122°36'0 0.7
2018-Feb-13 00:30N 48°31' W 122°36'712.8
2018-Feb-12 23:59N 48°37' W 122°33'5 9.9
2018-Feb-12 23:30N 48°32' W 122°34'2 4.2
2018-Feb-12 23:00N 48°31' W 122°36'0 0.0
2018-Feb-12 22:29N 48°31' W 122°36'  
Track history (hours):
 
Tides and Currents Weather Stations Pressure Air Temp Water Temp Dewpoint Dewpoint Depression Visibility Wind Speed Wind Dir Waves Ship Positions

Sioux Arrow

Owner: HARMON, JACK L, PORT ANGELES, WA. More information available from US FCC via Universal Licensing System and Coast Guard Vessel Documentation Center.

Last reported at 2018-Feb-22 22:25 UTC. Time now 2018-Feb-24 22:21 UTC.
Position N 48°31' W 122°36'.

Type: Port tender. MMSI: 366973370.

Date/timePositionNaut miles runAvg speedWind from/ knotsBaromVisibWave heightAir tempDewpointWater temp
2018-Feb-22 22:25N 48°31' W 122°36'0 0.1
2018-Feb-22 22:00N 48°31' W 122°36'0 0.0
2018-Feb-22 00:54N 48°31' W 122°36'0 0.2
2018-Feb-22 00:30N 48°31' W 122°37'2 4.2
2018-Feb-22 00:00N 48°31' W 122°34'2 4.0
2018-Feb-21 23:30N 48°31' W 122°37'1 1.3
2018-Feb-21 23:00N 48°31' W 122°37'0 0.0
2018-Feb-21 22:30N 48°31' W 122°37'0 0.0
2018-Feb-21 22:00N 48°31' W 122°37'0 0.0
2018-Feb-21 21:30N 48°31' W 122°37'1 1.3
2018-Feb-21 21:00N 48°31' W 122°37'0 0.0
2018-Feb-21 20:30N 48°31' W 122°37'0 0.3
2018-Feb-21 20:00N 48°31' W 122°36'0 0.1
2018-Feb-21 19:30N 48°31' W 122°36'611.3
2018-Feb-21 19:00N 48°36' W 122°34'1 2.3
2018-Feb-21 18:30N 48°35' W 122°34'5 9.4
2018-Feb-21 18:01N 48°31' W 122°36'0 0.1
2018-Feb-21 17:30N 48°31' W 122°36'0 0.0
2018-Feb-21 17:00N 48°31' W 122°36'1 2.9
2018-Feb-21 16:31N 48°31' W 122°34'0 0.1
2018-Feb-21 16:00N 48°31' W 122°34'1 2.8
2018-Feb-21 15:31N 48°31' W 122°36'0 0.0
2018-Feb-21 04:53N 48°31' W 122°36'3 8.8
2018-Feb-21 04:30N 48°34' W 122°34'3 5.2
2018-Feb-21 04:00N 48°36' W 122°33'3 6.0
2018-Feb-21 03:30N 48°33' W 122°34'3 5.9
2018-Feb-21 03:00N 48°31' W 122°36'0 0.0
2018-Feb-21 02:30N 48°31' W 122°36'0 0.0
2018-Feb-21 02:00N 48°31' W 122°36'0 0.0
2018-Feb-21 01:30N 48°31' W 122°36'0 0.0
2018-Feb-21 01:00N 48°31' W 122°36'0 0.0
2018-Feb-21 00:30N 48°31' W 122°36'0 0.0
2018-Feb-20 23:59N 48°31' W 122°36'0 0.0
2018-Feb-20 23:30N 48°31' W 122°36'2 3.1
2018-Feb-20 23:00N 48°31' W 122°34'2 0.1
2018-Feb-20 09:14N 48°31' W 122°36'2 7.0
2018-Feb-20 09:00N 48°32' W 122°35'5 9.5
2018-Feb-20 08:29N 48°36' W 122°33'1 3.1
2018-Feb-20 08:00N 48°36' W 122°35'5 9.5
2018-Feb-20 07:29N 48°31' W 122°36'0 0.3
2018-Feb-20 07:00N 48°31' W 122°36'0 0.0
2018-Feb-20 06:24N 48°31' W 122°36'0 0.0
2018-Feb-20 06:00N 48°31' W 122°36'4 8.0
2018-Feb-20 05:30N 48°34' W 122°34'1 2.7
2018-Feb-20 05:00N 48°36' W 122°34'5 9.1
2018-Feb-20 04:30N 48°31' W 122°35'1 2.4
2018-Feb-20 04:00N 48°31' W 122°36'0 0.0
2018-Feb-20 03:30N 48°31' W 122°36'0 0.0
2018-Feb-20 03:00N 48°31' W 122°36'0 0.0
2018-Feb-20 02:30N 48°31' W 122°36'0 0.0
2018-Feb-20 02:00N 48°31' W 122°36'0 0.0
2018-Feb-18 04:57N 48°31' W 122°36'0 0.0
2018-Feb-17 16:36N 48°31' W 122°36'0 0.0
2018-Feb-17 06:35N 48°31' W 122°36'0 0.0
2018-Feb-17 06:30N 48°31' W 122°36'0 0.0
2018-Feb-17 06:00N 48°31' W 122°36'0 0.0
2018-Feb-17 05:30N 48°31' W 122°36'0 0.0
2018-Feb-17 05:00N 48°31' W 122°36'510.8
2018-Feb-17 04:30N 48°36' W 122°33'5 9.6
2018-Feb-17 04:00N 48°31' W 122°35'1 2.2
2018-Feb-17 03:30N 48°31' W 122°36'0 0.0
2018-Feb-17 03:00N 48°31' W 122°36'1 2.0
2018-Feb-17 02:30N 48°31' W 122°35'1 2.1
2018-Feb-17 02:00N 48°31' W 122°36'0 0.0
2018-Feb-17 01:30N 48°31' W 122°36'0 0.0
2018-Feb-17 01:00N 48°31' W 122°36'0 0.9
2018-Feb-17 00:30N 48°31' W 122°36'1 1.5
2018-Feb-17 00:00N 48°31' W 122°35'1 2.4
2018-Feb-16 23:30N 48°31' W 122°36'0 0.0
2018-Feb-16 23:01N 48°31' W 122°36'0 0.0
2018-Feb-16 22:30N 48°31' W 122°36'0 0.0
2018-Feb-16 22:00N 48°31' W 122°36'1 2.4
2018-Feb-16 21:30N 48°31' W 122°35'0 0.2
2018-Feb-16 21:00N 48°31' W 122°35'1 1.6
2018-Feb-16 20:30N 48°31' W 122°36'1 1.5
2018-Feb-16 19:59N 48°31' W 122°35'1 2.3
2018-Feb-16 19:30N 48°31' W 122°36'0 0.0
2018-Feb-16 19:00N 48°31' W 122°36'0 0.0
2018-Feb-16 18:30N 48°31' W 122°36'0 0.0
2018-Feb-16 18:00N 48°31' W 122°36'0 0.1
2018-Feb-16 17:30N 48°31' W 122°36'0 0.1
2018-Feb-16 17:00N 48°31' W 122°36'5 9.7
2018-Feb-16 16:30N 48°35' W 122°34'1 1.4
2018-Feb-16 16:00N 48°36' W 122°33'510.9
2018-Feb-16 15:30N 48°31' W 122°36'0 0.0
2018-Feb-16 15:00N 48°31' W 122°36'0 0.0
2018-Feb-16 14:30N 48°31' W 122°36'0 0.0
2018-Feb-16 10:53N 48°31' W 122°36'0 0.0
2018-Feb-16 10:30N 48°31' W 122°36'0 0.0
2018-Feb-16 10:00N 48°31' W 122°36'0 0.0
2018-Feb-16 09:30N 48°31' W 122°36'1 1.2
2018-Feb-16 09:00N 48°31' W 122°36'1 1.2
2018-Feb-16 08:30N 48°31' W 122°36'0 0.0
2018-Feb-16 04:13N 48°31' W 122°36'0 0.0
2018-Feb-16 03:59N 48°31' W 122°36'0 0.0
2018-Feb-16 03:30N 48°31' W 122°36'0 0.2
2018-Feb-16 03:00N 48°31' W 122°36'611.8
2018-Feb-16 02:30N 48°36' W 122°33'612.1
2018-Feb-16 02:00N 48°31' W 122°36'0 0.0
2018-Feb-16 01:30N 48°31' W 122°36'0 0.0
2018-Feb-16 01:00N 48°31' W 122°36'611.7
2018-Feb-16 00:30N 48°36' W 122°33'3 4.8
2018-Feb-15 23:59N 48°34' W 122°34'3 7.0
2018-Feb-15 23:30N 48°31' W 122°36'0 0.0
2018-Feb-15 23:00N 48°31' W 122°36'2 4.1
2018-Feb-15 22:30N 48°32' W 122°34'3 6.8
2018-Feb-15 22:00N 48°35' W 122°33'1 1.2
2018-Feb-15 21:30N 48°36' W 122°33'611.1
2018-Feb-15 21:00N 48°31' W 122°36'3 5.7
2018-Feb-15 20:30N 48°33' W 122°34'2 4.9
2018-Feb-15 20:00N 48°35' W 122°33'510.4
2018-Feb-15 19:30N 48°31' W 122°36'1 1.6
2018-Feb-15 19:00N 48°31' W 122°35'5 9.4
2018-Feb-15 18:30N 48°36' W 122°34'510.3
2018-Feb-15 18:00N 48°31' W 122°36'510.1
2018-Feb-15 17:30N 48°35' W 122°34'4 7.2
2018-Feb-15 17:01N 48°32' W 122°34'1 2.3
2018-Feb-15 16:31N 48°33' W 122°34'3 5.4
2018-Feb-15 16:00N 48°36' W 122°33'510.8
2018-Feb-15 15:30N 48°31' W 122°36'0 0.0
2018-Feb-15 14:59N 48°31' W 122°36'3 7.1
2018-Feb-15 14:30N 48°34' W 122°34'2 3.8
2018-Feb-15 14:00N 48°35' W 122°33'5 9.6
2018-Feb-15 13:30N 48°31' W 122°36'1 0.1
2018-Feb-15 04:49N 48°31' W 122°36'2 5.6
2018-Feb-15 04:30N 48°32' W 122°34'3 6.6
2018-Feb-15 04:00N 48°35' W 122°34'5 9.5
2018-Feb-15 03:30N 48°31' W 122°36'0 0.0
2018-Feb-15 03:00N 48°31' W 122°36'0 0.0
2018-Feb-15 02:30N 48°31' W 122°36'0 0.0
2018-Feb-15 02:00N 48°31' W 122°36'0 0.0
2018-Feb-15 01:30N 48°31' W 122°36'0 0.0
2018-Feb-15 01:00N 48°31' W 122°36'611.7
2018-Feb-15 00:31N 48°36' W 122°33'4 8.8
2018-Feb-15 00:00N 48°32' W 122°34'1 1.1
2018-Feb-14 23:30N 48°31' W 122°34'0 0.3
2018-Feb-14 23:00N 48°31' W 122°34'2 3.8
2018-Feb-14 22:30N 48°31' W 122°36'0 0.0
2018-Feb-14 22:00N 48°31' W 122°36'0 0.0
2018-Feb-14 21:30N 48°31' W 122°36'0 0.1
2018-Feb-14 21:00N 48°31' W 122°36'2 3.6
2018-Feb-14 20:30N 48°32' W 122°34'4 7.5
2018-Feb-14 20:00N 48°36' W 122°33'510.8
2018-Feb-14 19:30N 48°31' W 122°36'0 0.0
2018-Feb-14 19:00N 48°31' W 122°36'0 0.0
2018-Feb-14 18:30N 48°31' W 122°36'0 0.0
2018-Feb-14 18:00N 48°31' W 122°36'0 0.0
2018-Feb-14 17:30N 48°31' W 122°36'0 0.0
2018-Feb-14 17:00N 48°31' W 122°36'4 8.9
2018-Feb-14 16:30N 48°35' W 122°34'1 2.4
2018-Feb-14 16:00N 48°36' W 122°33'611.3
2018-Feb-14 15:31N 48°31' W 122°36'0 0.0
2018-Feb-14 10:35N 48°31' W 122°36'0 0.0
2018-Feb-14 10:30N 48°31' W 122°36'1 2.2
2018-Feb-14 10:00N 48°31' W 122°35'0 1.0
2018-Feb-14 09:30N 48°31' W 122°36'1 1.3
2018-Feb-14 09:00N 48°31' W 122°36'0 0.0
2018-Feb-14 08:30N 48°31' W 122°36'0 0.0
2018-Feb-14 08:00N 48°31' W 122°36'0 0.0
2018-Feb-14 07:30N 48°31' W 122°36'0 0.0
2018-Feb-14 07:00N 48°31' W 122°36'0 0.0
2018-Feb-14 06:30N 48°31' W 122°36'0 0.0
2018-Feb-14 06:00N 48°31' W 122°36'0 0.0
2018-Feb-14 05:30N 48°31' W 122°36'0 0.0
2018-Feb-14 05:00N 48°31' W 122°36'1 1.5
2018-Feb-14 04:30N 48°31' W 122°36'510.9
2018-Feb-14 04:00N 48°36' W 122°33'1 1.1
2018-Feb-14 03:29N 48°36' W 122°33'2 4.1
2018-Feb-14 03:00N 48°34' W 122°34'3 7.0
2018-Feb-14 02:30N 48°31' W 122°36'0 0.0
2018-Feb-14 02:00N 48°31' W 122°36'0 0.0
2018-Feb-14 01:31N 48°31' W 122°36'0 0.0
2018-Feb-14 01:00N 48°31' W 122°36'0 0.0
2018-Feb-14 00:30N 48°31' W 122°36'0 0.0
2018-Feb-14 00:00N 48°31' W 122°36'0 0.0
2018-Feb-13 23:30N 48°31' W 122°36'0 0.0
2018-Feb-13 23:00N 48°31' W 122°36'0 0.0
2018-Feb-13 22:30N 48°31' W 122°36'1 2.2
2018-Feb-13 22:00N 48°31' W 122°35'1 2.1
2018-Feb-13 21:30N 48°31' W 122°36'1 1.9
2018-Feb-13 21:00N 48°31' W 122°35'0 0.5
2018-Feb-13 20:28N 48°31' W 122°35'1 1.3
2018-Feb-13 20:01N 48°31' W 122°36'0 1.0
2018-Feb-13 19:30N 48°31' W 122°36'0 0.0
2018-Feb-13 19:00N 48°31' W 122°36'0 0.0
2018-Feb-13 18:30N 48°31' W 122°36'2 4.5
2018-Feb-13 17:59N 48°33' W 122°34'5 9.4
2018-Feb-13 17:30N 48°37' W 122°34'511.0
2018-Feb-13 17:00N 48°32' W 122°34'2 0.7
2018-Feb-13 14:31N 48°31' W 122°36'0 0.0
2018-Feb-13 14:30N 48°31' W 122°36'510.4
2018-Feb-13 14:00N 48°36' W 122°34'1 2.6
2018-Feb-13 13:30N 48°37' W 122°34'1 2.1
2018-Feb-13 13:00N 48°37' W 122°32'1 2.9
2018-Feb-13 12:30N 48°36' W 122°34'510.4
2018-Feb-13 12:01N 48°31' W 122°36'0 0.0
2018-Feb-13 11:30N 48°31' W 122°36'0 0.0
2018-Feb-13 11:00N 48°31' W 122°36'0 0.0
2018-Feb-13 10:30N 48°31' W 122°36'0 0.0
2018-Feb-13 10:00N 48°31' W 122°36'0 0.0
2018-Feb-13 09:31N 48°31' W 122°36'0 0.0
2018-Feb-13 09:00N 48°31' W 122°36'0 0.0
2018-Feb-13 08:31N 48°31' W 122°36'0 0.0
2018-Feb-13 08:00N 48°31' W 122°36'0 0.0
2018-Feb-13 07:30N 48°31' W 122°36'0 0.0
2018-Feb-13 07:01N 48°31' W 122°36'0 0.0
2018-Feb-13 06:30N 48°31' W 122°36'0 0.0
2018-Feb-13 06:00N 48°31' W 122°36'4 8.5
2018-Feb-13 05:30N 48°35' W 122°34'2 3.1
2018-Feb-13 05:00N 48°36' W 122°34'611.6
2018-Feb-13 04:30N 48°31' W 122°36'0 0.0
2018-Feb-13 04:00N 48°31' W 122°36'0 0.1
2018-Feb-13 03:30N 48°31' W 122°37'0 0.1
2018-Feb-13 03:00N 48°31' W 122°36'0 0.0
2018-Feb-13 02:30N 48°31' W 122°36'0 0.0
2018-Feb-13 02:00N 48°31' W 122°36'0 0.1
2018-Feb-13 01:30N 48°31' W 122°37'0 0.1
2018-Feb-13 01:00N 48°31' W 122°36'0 0.7
2018-Feb-13 00:30N 48°31' W 122°36'712.8
2018-Feb-12 23:59N 48°37' W 122°33'5 9.9
2018-Feb-12 23:30N 48°32' W 122°34'2 4.2
2018-Feb-12 23:00N 48°31' W 122°36'0 0.0
2018-Feb-12 22:29N 48°31' W 122°36'  

Dump ship's entire track history